Terminal Aerodrome Forecast
Issued by NWS Cleveland, OH

Home | Current Version | Previous Version | Text Only | Print | Product List | Glossary On
Versions: 1 2 3 4 5 6 7 8 9 10 11 12 13 14 15 16 17 18 19 20 21
000
FTUS41 KCLE 222300 CCA
TAFERI
TAF COR
KERI 222346Z 2300/2324 06004KT P6SM SCT120
     FM230900 11004KT 3SM BR SCT008
     FM231500 03008KT P6SM SCT035=

USA.gov is the U.S. government's official web portal to all federal, state and local government web resources and services.